Aviation Digital Data Service (ADDS)

Output produced by METARs form (0907 UTC 26 January 2020)
found at http://www.aviationweather.gov/metar/data/
 
METAR text: RJCN 260900Z 25010KT 9999 FEW025 M11/M16 Q1021
Conditions at: RJCN (NAKASHIBETSU ARP, JP) observed 0900 UTC 26 January 2020
Temperature: -11.0°C (12°F)
Dewpoint: -16.0°C ( 3°F) [RH = 67%]
Pressure (altimeter): 30.15 inches Hg (1021.0 mb)
Winds: from the WSW (250 degrees) at 12 MPH (10 knots; 5.1 m/s)
Visibility: 6 or more miles (10+ km)
Ceiling: at least 12,000 feet AGL
Clouds: few clouds at 2500 feet AGL
Weather: no significant weather observed at this time

METAR text: RJCN 260800Z 28005KT 9999 FEW025 M08/M16 Q1021
Conditions at: RJCN (NAKASHIBETSU ARP, JP) observed 0800 UTC 26 January 2020
Temperature: -8.0°C (18°F)
Dewpoint: -16.0°C ( 3°F) [RH = 53%]
Pressure (altimeter): 30.15 inches Hg (1021.0 mb)
Winds: from the W (280 degrees) at 6 MPH (5 knots; 2.6 m/s)
Visibility: 6 or more miles (10+ km)
Ceiling: at least 12,000 feet AGL
Clouds: few clouds at 2500 feet AGL
Weather: no significant weather observed at this time

METAR text: RJCN 260700Z 28004KT 9999 FEW025 M07/M15 Q1021
Conditions at: RJCN (NAKASHIBETSU ARP, JP) observed 0700 UTC 26 January 2020
Temperature: -7.0°C (19°F)
Dewpoint: -15.0°C ( 5°F) [RH = 53%]
Pressure (altimeter): 30.15 inches Hg (1021.0 mb)
Winds: from the W (280 degrees) at 5 MPH (4 knots; 2.1 m/s)
Visibility: 6 or more miles (10+ km)
Ceiling: at least 12,000 feet AGL
Clouds: few clouds at 2500 feet AGL
Weather: no significant weather observed at this time

METAR text: RJCN 260600Z 29007KT 260V330 9999 FEW025 M07/M15 Q1021
Conditions at: RJCN (NAKASHIBETSU ARP, JP) observed 0600 UTC 26 January 2020
Temperature: -7.0°C (19°F)
Dewpoint: -15.0°C ( 5°F) [RH = 53%]
Pressure (altimeter): 30.15 inches Hg (1021.0 mb)
Winds: from the WNW (290 degrees) at 8 MPH (7 knots; 3.6 m/s)
Visibility: 6 or more miles (10+ km)
Ceiling: at least 12,000 feet AGL
Clouds: few clouds at 2500 feet AGL
Weather: no significant weather observed at this time

METAR text: RJCN 260500Z 29009KT 250V340 9999 FEW020 M06/M16 Q1021
Conditions at: RJCN (NAKASHIBETSU ARP, JP) observed 0500 UTC 26 January 2020
Temperature: -6.0°C (21°F)
Dewpoint: -16.0°C ( 3°F) [RH = 45%]
Pressure (altimeter): 30.15 inches Hg (1021.0 mb)
Winds: from the WNW (290 degrees) at 10 MPH (9 knots; 4.6 m/s)
Visibility: 6 or more miles (10+ km)
Ceiling: at least 12,000 feet AGL
Clouds: few clouds at 2000 feet AGL
Weather: no significant weather observed at this time

METAR text: RJCN 260400Z 29014KT 260V340 9999 FEW020 M07/M15 Q1022
Conditions at: RJCN (NAKASHIBETSU ARP, JP) observed 0400 UTC 26 January 2020
Temperature: -7.0°C (19°F)
Dewpoint: -15.0°C ( 5°F) [RH = 53%]
Pressure (altimeter): 30.18 inches Hg (1022.0 mb)
Winds: from the WNW (290 degrees) at 16 MPH (14 knots; 7.2 m/s)
Visibility: 6 or more miles (10+ km)
Ceiling: at least 12,000 feet AGL
Clouds: few clouds at 2000 feet AGL
Weather: no significant weather observed at this time

METAR text: RJCN 260300Z 29018KT 260V330 9999 DRSN FEW020 M08/M14 Q1022
Conditions at: RJCN (NAKASHIBETSU ARP, JP) observed 0300 UTC 26 January 2020
Temperature: -8.0°C (18°F)
Dewpoint: -14.0°C ( 7°F) [RH = 62%]
Pressure (altimeter): 30.18 inches Hg (1022.0 mb)
Winds: from the WNW (290 degrees) at 21 MPH (18 knots; 9.3 m/s)
Visibility: 6 or more miles (10+ km)
Ceiling: at least 12,000 feet AGL
Clouds: few clouds at 2000 feet AGL
Weather: DRSN  (low drifting snow)

METAR text: RJCN 260236Z 29015KT 270V330 9999 DRSN FEW025 M08/M14 Q1022 RMK 1CU025 A3020
Conditions at: RJCN (NAKASHIBETSU ARP, JP) observed 0236 UTC 26 January 2020
Temperature: -8.0°C (18°F)
Dewpoint: -14.0°C ( 7°F) [RH = 62%]
Pressure (altimeter): 30.18 inches Hg (1022.0 mb)
Winds: from the WNW (290 degrees) at 17 MPH (15 knots; 7.7 m/s)
Visibility: 6 or more miles (10+ km)
Ceiling: at least 12,000 feet AGL
Clouds: few clouds at 2500 feet AGL
Weather: DRSN  (low drifting snow)

METAR text: RJCN 260200Z 29011KT 250V330 9999 FEW025 M07/M16 Q1023
Conditions at: RJCN (NAKASHIBETSU ARP, JP) observed 0200 UTC 26 January 2020
Temperature: -7.0°C (19°F)
Dewpoint: -16.0°C ( 3°F) [RH = 49%]
Pressure (altimeter): 30.21 inches Hg (1023.0 mb)
Winds: from the WNW (290 degrees) at 13 MPH (11 knots; 5.7 m/s)
Visibility: 6 or more miles (10+ km)
Ceiling: at least 12,000 feet AGL
Clouds: few clouds at 2500 feet AGL
Weather: no significant weather observed at this time

METAR text: RJCN 260100Z 31006KT 250V010 9999 FEW025 M08/M17 Q1024
Conditions at: RJCN (NAKASHIBETSU ARP, JP) observed 0100 UTC 26 January 2020
Temperature: -8.0°C (18°F)
Dewpoint: -17.0°C ( 1°F) [RH = 48%]
Pressure (altimeter): 30.24 inches Hg (1024.0 mb)
Winds: from the NW (310 degrees) at 7 MPH (6 knots; 3.1 m/s)
Visibility: 6 or more miles (10+ km)
Ceiling: at least 12,000 feet AGL
Clouds: few clouds at 2500 feet AGL
Weather: no significant weather observed at this time

METAR text: RJCN 260000Z VRB02KT 9999 FEW025 M09/M17 Q1024
Conditions at: RJCN (NAKASHIBETSU ARP, JP) observed 0000 UTC 26 January 2020
Temperature: -9.0°C (16°F)
Dewpoint: -17.0°C ( 1°F) [RH = 52%]
Pressure (altimeter): 30.24 inches Hg (1024.0 mb)
Winds: variable direction winds at 2 MPH (2 knots; 1.0 m/s)
Visibility: 6 or more miles (10+ km)
Ceiling: at least 12,000 feet AGL
Clouds: few clouds at 2500 feet AGL
Weather: no significant weather observed at this time

METAR text: RJCN 252330Z 24005KT 170V280 9999 FEW020 M11/M17 Q1024
Conditions at: RJCN (NAKASHIBETSU ARP, JP) observed 2330 UTC 25 January 2020
Temperature: -11.0°C (12°F)
Dewpoint: -17.0°C ( 1°F) [RH = 61%]
Pressure (altimeter): 30.24 inches Hg (1024.0 mb)
Winds: from the WSW (240 degrees) at 6 MPH (5 knots; 2.6 m/s)
Visibility: 6 or more miles (10+ km)
Ceiling: at least 12,000 feet AGL
Clouds: few clouds at 2000 feet AGL
Weather: no significant weather observed at this time

METAR text: RJCN 250900Z 33007KT 290V360 4500 -SHSN FEW008 SCT012 BKN020 M08/M12 Q1021
Conditions at: RJCN (NAKASHIBETSU ARP, JP) observed 0900 UTC 25 January 2020
Temperature: -8.0°C (18°F)
Dewpoint: -12.0°C (10°F) [RH = 73%]
Pressure (altimeter): 30.15 inches Hg (1021.0 mb)
Winds: from the NNW (330 degrees) at 8 MPH (7 knots; 3.6 m/s)
Visibility: 2.80 miles (4.51 km)
Ceiling: 2000 feet AGL
Clouds: few clouds at 800 feet AGL
scattered clouds at 1200 feet AGL
broken clouds at 2000 feet AGL
Weather: -SHSN  (light snow showers)

METAR text: RJCN 250837Z 32006KT 290V360 4900 -SHSN FEW008 SCT012 BKN020 M08/M12 Q1021 RMK 1ST008 3ST012 6CU020 A3017
Conditions at: RJCN (NAKASHIBETSU ARP, JP) observed 0837 UTC 25 January 2020
Temperature: -8.0°C (18°F)
Dewpoint: -12.0°C (10°F) [RH = 73%]
Pressure (altimeter): 30.15 inches Hg (1021.0 mb)
Winds: from the NW (320 degrees) at 7 MPH (6 knots; 3.1 m/s)
Visibility: 3 miles ( 5 km)
Ceiling: 2000 feet AGL
Clouds: few clouds at 800 feet AGL
scattered clouds at 1200 feet AGL
broken clouds at 2000 feet AGL
Weather: -SHSN  (light snow showers)

METAR text: RJCN 250800Z 30005KT 9999 VCSH FEW008 SCT020 M09/M14 Q1021
Conditions at: RJCN (NAKASHIBETSU ARP, JP) observed 0800 UTC 25 January 2020
Temperature: -9.0°C (16°F)
Dewpoint: -14.0°C ( 7°F) [RH = 67%]
Pressure (altimeter): 30.15 inches Hg (1021.0 mb)
Winds: from the WNW (300 degrees) at 6 MPH (5 knots; 2.6 m/s)
Visibility: 6 or more miles (10+ km)
Ceiling: at least 12,000 feet AGL
Clouds: few clouds at 800 feet AGL
scattered clouds at 2000 feet AGL
Weather: VCSH  (showers in vicinity)

METAR text: RJCN 250700Z 29007KT 250V320 9999 VCSH FEW010 M08/M14 Q1020
Conditions at: RJCN (NAKASHIBETSU ARP, JP) observed 0700 UTC 25 January 2020
Temperature: -8.0°C (18°F)
Dewpoint: -14.0°C ( 7°F) [RH = 62%]
Pressure (altimeter): 30.12 inches Hg (1020.0 mb)
Winds: from the WNW (290 degrees) at 8 MPH (7 knots; 3.6 m/s)
Visibility: 6 or more miles (10+ km)
Ceiling: at least 12,000 feet AGL
Clouds: few clouds at 1000 feet AGL
Weather: VCSH  (showers in vicinity)

METAR text: RJCN 250600Z 29009KT 260V320 9999 VCSH FEW010 M07/M14 Q1020
Conditions at: RJCN (NAKASHIBETSU ARP, JP) observed 0600 UTC 25 January 2020
Temperature: -7.0°C (19°F)
Dewpoint: -14.0°C ( 7°F) [RH = 57%]
Pressure (altimeter): 30.12 inches Hg (1020.0 mb)
Winds: from the WNW (290 degrees) at 10 MPH (9 knots; 4.6 m/s)
Visibility: 6 or more miles (10+ km)
Ceiling: at least 12,000 feet AGL
Clouds: few clouds at 1000 feet AGL
Weather: VCSH  (showers in vicinity)

METAR text: RJCN 250500Z 29011KT 250V330 9999 VCSH FEW010 SCT025 M07/M14 Q1020
Conditions at: RJCN (NAKASHIBETSU ARP, JP) observed 0500 UTC 25 January 2020
Temperature: -7.0°C (19°F)
Dewpoint: -14.0°C ( 7°F) [RH = 57%]
Pressure (altimeter): 30.12 inches Hg (1020.0 mb)
Winds: from the WNW (290 degrees) at 13 MPH (11 knots; 5.7 m/s)
Visibility: 6 or more miles (10+ km)
Ceiling: at least 12,000 feet AGL
Clouds: few clouds at 1000 feet AGL
scattered clouds at 2500 feet AGL
Weather: VCSH  (showers in vicinity)

METAR text: RJCN 250400Z 30016KT 260V330 9999 VCSH FEW010 SCT025 M07/M15 Q1020
Conditions at: RJCN (NAKASHIBETSU ARP, JP) observed 0400 UTC 25 January 2020
Temperature: -7.0°C (19°F)
Dewpoint: -15.0°C ( 5°F) [RH = 53%]
Pressure (altimeter): 30.12 inches Hg (1020.0 mb)
Winds: from the WNW (300 degrees) at 18 MPH (16 knots; 8.2 m/s)
Visibility: 6 or more miles (10+ km)
Ceiling: at least 12,000 feet AGL
Clouds: few clouds at 1000 feet AGL
scattered clouds at 2500 feet AGL
Weather: VCSH  (showers in vicinity)

METAR text: RJCN 250300Z 31012KT 260V350 9999 VCSH FEW010 SCT025 M06/M17 Q1021
Conditions at: RJCN (NAKASHIBETSU ARP, JP) observed 0300 UTC 25 January 2020
Temperature: -6.0°C (21°F)
Dewpoint: -17.0°C ( 1°F) [RH = 41%]
Pressure (altimeter): 30.15 inches Hg (1021.0 mb)
Winds: from the NW (310 degrees) at 14 MPH (12 knots; 6.2 m/s)
Visibility: 6 or more miles (10+ km)
Ceiling: at least 12,000 feet AGL
Clouds: few clouds at 1000 feet AGL
scattered clouds at 2500 feet AGL
Weather: VCSH  (showers in vicinity)

METAR text: RJCN 250200Z 30011G24KT 260V350 9999 FEW020 SCT040 M06/M16 Q1021
Conditions at: RJCN (NAKASHIBETSU ARP, JP) observed 0200 UTC 25 January 2020
Temperature: -6.0°C (21°F)
Dewpoint: -16.0°C ( 3°F) [RH = 45%]
Pressure (altimeter): 30.15 inches Hg (1021.0 mb)
Winds: from the WNW (300 degrees) at 13 MPH (11 knots; 5.7 m/s)
gusting to 28 MPH (24 knots; 12.3 m/s)
Visibility: 6 or more miles (10+ km)
Ceiling: at least 12,000 feet AGL
Clouds: few clouds at 2000 feet AGL
scattered clouds at 4000 feet AGL
Weather: no significant weather observed at this time

METAR text: RJCN 250100Z 29014G27KT 250V360 9999 FEW015 SCT030 M07/M16 Q1022
Conditions at: RJCN (NAKASHIBETSU ARP, JP) observed 0100 UTC 25 January 2020
Temperature: -7.0°C (19°F)
Dewpoint: -16.0°C ( 3°F) [RH = 49%]
Pressure (altimeter): 30.18 inches Hg (1022.0 mb)
Winds: from the WNW (290 degrees) at 16 MPH (14 knots; 7.2 m/s)
gusting to 31 MPH (27 knots; 13.9 m/s)
Visibility: 6 or more miles (10+ km)
Ceiling: at least 12,000 feet AGL
Clouds: few clouds at 1500 feet AGL
scattered clouds at 3000 feet AGL
Weather: no significant weather observed at this time

METAR text: RJCN 250000Z 31011G24KT 270V350 9999 FEW015 SCT025 M08/M14 Q1022
Conditions at: RJCN (NAKASHIBETSU ARP, JP) observed 0000 UTC 25 January 2020
Temperature: -8.0°C (18°F)
Dewpoint: -14.0°C ( 7°F) [RH = 62%]
Pressure (altimeter): 30.18 inches Hg (1022.0 mb)
Winds: from the NW (310 degrees) at 13 MPH (11 knots; 5.7 m/s)
gusting to 28 MPH (24 knots; 12.3 m/s)
Visibility: 6 or more miles (10+ km)
Ceiling: at least 12,000 feet AGL
Clouds: few clouds at 1500 feet AGL
scattered clouds at 2500 feet AGL
Weather: no significant weather observed at this time

METAR text: RJCN 242330Z 29014G28KT 250V330 9999 VCSH FEW009 SCT020 M07/M16 Q1021
Conditions at: RJCN (NAKASHIBETSU ARP, JP) observed 2330 UTC 24 January 2020
Temperature: -7.0°C (19°F)
Dewpoint: -16.0°C ( 3°F) [RH = 49%]
Pressure (altimeter): 30.15 inches Hg (1021.0 mb)
Winds: from the WNW (290 degrees) at 16 MPH (14 knots; 7.2 m/s)
gusting to 32 MPH (28 knots; 14.4 m/s)
Visibility: 6 or more miles (10+ km)
Ceiling: at least 12,000 feet AGL
Clouds: few clouds at 900 feet AGL
scattered clouds at 2000 feet AGL
Weather: VCSH  (showers in vicinity)